UTAM

Details ICAO UTAM (MYP)
Name MARY
Region Tajikistan, Turkmenistan and Uzbekistan
Timezone Asia/Ashgabat (UTC+5.0)
Plans Departing 17
Arriving 17
Stats Elevation 728 ft / 222 m (AMSL)
Location 37.619500° 61.896800°
Runways 2
Magnetic Variation 4.693° E
Sunrise 2018-10-19 02:05:08 UTC / 2018-10-19 07:05:08 Local
Sunset 2018-10-19 13:12:01 UTC / 2018-10-19 18:12:01 Local
Advertisement - Login to hide

Runways

ID Width Length Bearing (true/mag) Surface Threshold Overrun Markings Lighting
18L 147 ft / 45 m 9,126 ft / 2,782 m 178.49° / 173.79° CONCRETE 0 ft / 0 m 0 ft / 0 m APP EDGE THRESHOLD ALSF-I
18R 98 ft / 30 m 8,011 ft / 2,442 m 178.28° / 173.58° CONCRETE 0 ft / 0 m 0 ft / 0 m APP EDGE THRESHOLD
36L 98 ft / 30 m 8,011 ft / 2,442 m 358.28° / 353.58° CONCRETE 0 ft / 0 m 0 ft / 0 m APP EDGE THRESHOLD MALS
36R 147 ft / 45 m 9,126 ft / 2,782 m 358.49° / 353.79° CONCRETE 0 ft / 0 m 0 ft / 0 m APP EDGE THRESHOLD ALSF-I

Map

Weather


0- 5 10 15 20 25 30 35+ Temperature / °C

Clouds and Precipitation
Forecast for 2018-10-19 06:00 UTC. Updated 5 hours ago

Ground ~20,000 ft ~40,000 ft Winds

METAR

UTAM 190800Z 08006KT CAVOK 19/02 Q1025 NOSIG

TAF

Not found

Frequencies

Approach 124.00 MHz RADAR
Tower 122.20 MHz
Warning: Do not use this data for real-world aviation or navigation. No guarantee of current accuracy is given.